sensor_id;sensor_type;location;lat;lon;timestamp;P1;durP1;ratioP1;P2;durP2;ratioP2
9880;SDS011;4979;51.014;6.678;2022-09-03T00:02:46;4.13;;;2.65;;
9880;SDS011;4979;51.014;6.678;2022-09-03T00:08:19;2.15;;;1.75;;
9880;SDS011;4979;51.014;6.678;2022-09-03T00:13:24;2.35;;;1.60;;
9880;SDS011;4979;51.014;6.678;2022-09-03T00:15:58;3.78;;;2.38;;
9880;SDS011;4979;51.014;6.678;2022-09-03T00:18:28;4.68;;;1.70;;
9880;SDS011;4979;51.014;6.678;2022-09-03T00:21:07;7.22;;;1.70;;
9880;SDS011;4979;51.014;6.678;2022-09-03T00:23:43;7.20;;;2.78;;
9880;SDS011;4979;51.014;6.678;2022-09-03T00:28:48;5.45;;;2.25;;
9880;SDS011;4979;51.014;6.678;2022-09-03T00:31:20;1.85;;;1.50;;
9880;SDS011;4979;51.014;6.678;2022-09-03T00:33:51;3.08;;;2.17;;
9880;SDS011;4979;51.014;6.678;2022-09-03T00:36:28;6.32;;;2.75;;
9880;SDS011;4979;51.014;6.678;2022-09-03T00:38:59;5.72;;;2.63;;
9880;SDS011;4979;51.014;6.678;2022-09-03T00:55:48;5.68;;;2.38;;
9880;SDS011;4979;51.014;6.678;2022-09-03T00:58:26;4.03;;;2.42;;
9880;SDS011;4979;51.014;6.678;2022-09-03T01:01:12;7.25;;;2.63;;
9880;SDS011;4979;51.014;6.678;2022-09-03T01:09:11;5.38;;;2.33;;
9880;SDS011;4979;51.014;6.678;2022-09-03T01:19:49;4.13;;;2.10;;
9880;SDS011;4979;51.014;6.678;2022-09-03T01:30:26;3.90;;;1.80;;
9880;SDS011;4979;51.014;6.678;2022-09-03T01:33:10;4.93;;;1.85;;
9880;SDS011;4979;51.014;6.678;2022-09-03T01:35:44;2.22;;;1.33;;
9880;SDS011;4979;51.014;6.678;2022-09-03T01:41:07;2.30;;;1.40;;
9880;SDS011;4979;51.014;6.678;2022-09-03T01:46:39;2.22;;;1.70;;
9880;SDS011;4979;51.014;6.678;2022-09-03T01:49:18;2.33;;;1.50;;
9880;SDS011;4979;51.014;6.678;2022-09-03T01:52:04;3.15;;;1.55;;
9880;SDS011;4979;51.014;6.678;2022-09-03T01:54:47;3.08;;;2.15;;
9880;SDS011;4979;51.014;6.678;2022-09-03T02:00:09;2.17;;;1.40;;
9880;SDS011;4979;51.014;6.678;2022-09-03T02:02:38;4.05;;;1.88;;
9880;SDS011;4979;51.014;6.678;2022-09-03T02:05:09;4.15;;;2.20;;
9880;SDS011;4979;51.014;6.678;2022-09-03T02:07:47;5.18;;;1.65;;
9880;SDS011;4979;51.014;6.678;2022-09-03T02:10:18;2.88;;;1.77;;
9880;SDS011;4979;51.014;6.678;2022-09-03T02:12:47;1.50;;;1.40;;
9880;SDS011;4979;51.014;6.678;2022-09-03T02:15:17;1.63;;;1.50;;
9880;SDS011;4979;51.014;6.678;2022-09-03T02:17:46;2.15;;;1.60;;
9880;SDS011;4979;51.014;6.678;2022-09-03T02:20:18;1.50;;;1.40;;
9880;SDS011;4979;51.014;6.678;2022-09-03T02:22:46;1.80;;;1.30;;
9880;SDS011;4979;51.014;6.678;2022-09-03T02:25:13;3.75;;;1.90;;
9880;SDS011;4979;51.014;6.678;2022-09-03T02:27:40;2.20;;;1.35;;
9880;SDS011;4979;51.014;6.678;2022-09-03T02:30:06;2.85;;;1.25;;
9880;SDS011;4979;51.014;6.678;2022-09-03T02:32:32;5.55;;;1.40;;
9880;SDS011;4979;51.014;6.678;2022-09-03T02:34:58;2.65;;;1.52;;
9880;SDS011;4979;51.014;6.678;2022-09-03T02:37:24;3.40;;;1.70;;
9880;SDS011;4979;51.014;6.678;2022-09-03T02:39:50;2.78;;;1.63;;
9880;SDS011;4979;51.014;6.678;2022-09-03T02:42:16;2.65;;;1.50;;
9880;SDS011;4979;51.014;6.678;2022-09-03T02:44:51;1.88;;;1.40;;
9880;SDS011;4979;51.014;6.678;2022-09-03T02:47:21;1.83;;;1.45;;
9880;SDS011;4979;51.014;6.678;2022-09-03T02:49:52;2.10;;;1.90;;
9880;SDS011;4979;51.014;6.678;2022-09-03T02:52:18;1.85;;;1.58;;
9880;SDS011;4979;51.014;6.678;2022-09-03T02:54:43;3.25;;;1.80;;
9880;SDS011;4979;51.014;6.678;2022-09-03T02:57:11;2.05;;;1.83;;
9880;SDS011;4979;51.014;6.678;2022-09-03T02:59:38;2.58;;;1.80;;
9880;SDS011;4979;51.014;6.678;2022-09-03T03:02:05;3.95;;;2.15;;
9880;SDS011;4979;51.014;6.678;2022-09-03T03:04:31;3.30;;;1.90;;
9880;SDS011;4979;51.014;6.678;2022-09-03T03:06:58;3.35;;;1.80;;
9880;SDS011;4979;51.014;6.678;2022-09-03T03:09:23;2.03;;;1.60;;
9880;SDS011;4979;51.014;6.678;2022-09-03T03:11:49;1.98;;;1.40;;
9880;SDS011;4979;51.014;6.678;2022-09-03T03:14:15;1.90;;;1.60;;
9880;SDS011;4979;51.014;6.678;2022-09-03T03:16:42;2.10;;;1.70;;
9880;SDS011;4979;51.014;6.678;2022-09-03T03:19:08;3.50;;;1.58;;
9880;SDS011;4979;51.014;6.678;2022-09-03T03:21:33;3.53;;;1.60;;
9880;SDS011;4979;51.014;6.678;2022-09-03T03:24:00;1.73;;;1.48;;
9880;SDS011;4979;51.014;6.678;2022-09-03T03:26:26;2.20;;;1.58;;
9880;SDS011;4979;51.014;6.678;2022-09-03T03:28:56;1.83;;;1.50;;
9880;SDS011;4979;51.014;6.678;2022-09-03T03:31:23;1.90;;;1.70;;
9880;SDS011;4979;51.014;6.678;2022-09-03T03:33:56;4.40;;;1.58;;
9880;SDS011;4979;51.014;6.678;2022-09-03T03:36:24;2.33;;;1.63;;
9880;SDS011;4979;51.014;6.678;2022-09-03T03:38:52;1.40;;;1.30;;
9880;SDS011;4979;51.014;6.678;2022-09-03T03:41:20;1.67;;;1.40;;
9880;SDS011;4979;51.014;6.678;2022-09-03T03:43:51;1.33;;;1.23;;
9880;SDS011;4979;51.014;6.678;2022-09-03T03:46:19;2.47;;;1.40;;
9880;SDS011;4979;51.014;6.678;2022-09-03T03:48:48;1.85;;;1.40;;
9880;SDS011;4979;51.014;6.678;2022-09-03T03:51:15;3.10;;;1.60;;
9880;SDS011;4979;51.014;6.678;2022-09-03T03:53:41;4.35;;;1.48;;
9880;SDS011;4979;51.014;6.678;2022-09-03T03:56:08;1.40;;;1.20;;
9880;SDS011;4979;51.014;6.678;2022-09-03T03:58:35;4.10;;;1.40;;
9880;SDS011;4979;51.014;6.678;2022-09-03T04:01:05;1.58;;;1.48;;
9880;SDS011;4979;51.014;6.678;2022-09-03T04:03:35;2.25;;;1.67;;
9880;SDS011;4979;51.014;6.678;2022-09-03T04:06:02;1.77;;;1.40;;
9880;SDS011;4979;51.014;6.678;2022-09-03T04:08:29;2.05;;;1.52;;
9880;SDS011;4979;51.014;6.678;2022-09-03T04:10:58;1.50;;;1.25;;
9880;SDS011;4979;51.014;6.678;2022-09-03T04:13:35;3.85;;;1.30;;
9880;SDS011;4979;51.014;6.678;2022-09-03T04:16:05;2.08;;;1.40;;
9880;SDS011;4979;51.014;6.678;2022-09-03T04:18:33;3.47;;;1.30;;
9880;SDS011;4979;51.014;6.678;2022-09-03T04:21:03;1.50;;;1.40;;
9880;SDS011;4979;51.014;6.678;2022-09-03T04:23:34;1.40;;;1.30;;
9880;SDS011;4979;51.014;6.678;2022-09-03T04:26:02;1.80;;;1.50;;
9880;SDS011;4979;51.014;6.678;2022-09-03T04:28:28;1.15;;;1.05;;
9880;SDS011;4979;51.014;6.678;2022-09-03T04:30:54;2.42;;;1.20;;
9880;SDS011;4979;51.014;6.678;2022-09-03T04:33:24;4.18;;;1.38;;
9880;SDS011;4979;51.014;6.678;2022-09-03T04:35:49;3.42;;;1.20;;
9880;SDS011;4979;51.014;6.678;2022-09-03T04:38:15;3.33;;;1.30;;
9880;SDS011;4979;51.014;6.678;2022-09-03T04:40:41;2.45;;;1.30;;
9880;SDS011;4979;51.014;6.678;2022-09-03T04:43:06;3.53;;;1.58;;
9880;SDS011;4979;51.014;6.678;2022-09-03T04:45:32;4.63;;;1.40;;
9880;SDS011;4979;51.014;6.678;2022-09-03T04:47:58;1.30;;;1.20;;
9880;SDS011;4979;51.014;6.678;2022-09-03T04:50:25;1.52;;;1.10;;
9880;SDS011;4979;51.014;6.678;2022-09-03T04:52:52;1.42;;;1.33;;
9880;SDS011;4979;51.014;6.678;2022-09-03T04:55:22;1.95;;;1.40;;
9880;SDS011;4979;51.014;6.678;2022-09-03T04:57:47;1.50;;;1.40;;
9880;SDS011;4979;51.014;6.678;2022-09-03T05:00:13;2.28;;;1.42;;
9880;SDS011;4979;51.014;6.678;2022-09-03T05:02:42;1.83;;;1.20;;
9880;SDS011;4979;51.014;6.678;2022-09-03T05:05:10;1.45;;;1.35;;
9880;SDS011;4979;51.014;6.678;2022-09-03T05:07:36;3.72;;;1.13;;
9880;SDS011;4979;51.014;6.678;2022-09-03T05:10:09;4.47;;;1.23;;
9880;SDS011;4979;51.014;6.678;2022-09-03T05:12:44;4.35;;;1.35;;
9880;SDS011;4979;51.014;6.678;2022-09-03T05:15:12;3.80;;;1.40;;
9880;SDS011;4979;51.014;6.678;2022-09-03T05:17:38;1.60;;;1.50;;
9880;SDS011;4979;51.014;6.678;2022-09-03T05:20:04;1.40;;;1.20;;
9880;SDS011;4979;51.014;6.678;2022-09-03T05:22:33;1.20;;;1.10;;
9880;SDS011;4979;51.014;6.678;2022-09-03T05:24:59;3.45;;;1.10;;
9880;SDS011;4979;51.014;6.678;2022-09-03T05:27:25;1.75;;;1.30;;
9880;SDS011;4979;51.014;6.678;2022-09-03T05:29:50;1.10;;;1.02;;
9880;SDS011;4979;51.014;6.678;2022-09-03T05:32:16;1.73;;;1.30;;
9880;SDS011;4979;51.014;6.678;2022-09-03T05:34:44;1.10;;;1.00;;
9880;SDS011;4979;51.014;6.678;2022-09-03T05:37:10;7.10;;;1.38;;
9880;SDS011;4979;51.014;6.678;2022-09-03T05:39:36;1.27;;;1.17;;
9880;SDS011;4979;51.014;6.678;2022-09-03T05:42:02;2.00;;;1.40;;
9880;SDS011;4979;51.014;6.678;2022-09-03T05:44:27;1.48;;;1.10;;
9880;SDS011;4979;51.014;6.678;2022-09-03T05:46:54;3.50;;;1.30;;
9880;SDS011;4979;51.014;6.678;2022-09-03T05:49:19;1.55;;;1.10;;
9880;SDS011;4979;51.014;6.678;2022-09-03T05:51:45;1.42;;;1.33;;
9880;SDS011;4979;51.014;6.678;2022-09-03T05:54:11;2.45;;;1.30;;
9880;SDS011;4979;51.014;6.678;2022-09-03T05:56:37;2.03;;;1.40;;
9880;SDS011;4979;51.014;6.678;2022-09-03T05:59:04;2.85;;;0.98;;
9880;SDS011;4979;51.014;6.678;2022-09-03T06:01:39;1.30;;;1.20;;
9880;SDS011;4979;51.014;6.678;2022-09-03T06:04:07;2.88;;;1.10;;
9880;SDS011;4979;51.014;6.678;2022-09-03T06:06:35;1.23;;;1.13;;
9880;SDS011;4979;51.014;6.678;2022-09-03T06:09:04;5.25;;;1.48;;
9880;SDS011;4979;51.014;6.678;2022-09-03T06:11:32;5.30;;;1.20;;
9880;SDS011;4979;51.014;6.678;2022-09-03T06:13:59;1.25;;;1.15;;
9880;SDS011;4979;51.014;6.678;2022-09-03T06:16:30;2.25;;;1.33;;
9880;SDS011;4979;51.014;6.678;2022-09-03T06:18:57;1.63;;;1.48;;
9880;SDS011;4979;51.014;6.678;2022-09-03T06:21:27;2.08;;;1.20;;
9880;SDS011;4979;51.014;6.678;2022-09-03T06:23:53;1.67;;;1.15;;
9880;SDS011;4979;51.014;6.678;2022-09-03T06:26:23;2.70;;;1.20;;
9880;SDS011;4979;51.014;6.678;2022-09-03T06:28:49;1.45;;;1.30;;
9880;SDS011;4979;51.014;6.678;2022-09-03T06:31:19;1.40;;;1.30;;
9880;SDS011;4979;51.014;6.678;2022-09-03T06:33:45;1.85;;;1.50;;
9880;SDS011;4979;51.014;6.678;2022-09-03T06:36:12;2.67;;;1.15;;
9880;SDS011;4979;51.014;6.678;2022-09-03T06:38:42;4.40;;;1.50;;
9880;SDS011;4979;51.014;6.678;2022-09-03T06:41:15;2.88;;;1.38;;
9880;SDS011;4979;51.014;6.678;2022-09-03T06:43:49;1.30;;;1.20;;
9880;SDS011;4979;51.014;6.678;2022-09-03T06:46:20;2.97;;;1.20;;
9880;SDS011;4979;51.014;6.678;2022-09-03T06:48:47;2.38;;;1.10;;
9880;SDS011;4979;51.014;6.678;2022-09-03T06:51:15;2.35;;;1.65;;
9880;SDS011;4979;51.014;6.678;2022-09-03T06:53:44;4.47;;;1.50;;
9880;SDS011;4979;51.014;6.678;2022-09-03T06:56:12;3.40;;;1.20;;
9880;SDS011;4979;51.014;6.678;2022-09-03T06:58:41;3.10;;;1.50;;
9880;SDS011;4979;51.014;6.678;2022-09-03T07:03:35;2.10;;;1.30;;
9880;SDS011;4979;51.014;6.678;2022-09-03T07:06:03;3.03;;;1.85;;
9880;SDS011;4979;51.014;6.678;2022-09-03T07:08:33;1.60;;;1.48;;
9880;SDS011;4979;51.014;6.678;2022-09-03T07:11:02;1.50;;;1.40;;
9880;SDS011;4979;51.014;6.678;2022-09-03T07:13:33;3.65;;;1.60;;
9880;SDS011;4979;51.014;6.678;2022-09-03T07:16:03;2.55;;;1.70;;
9880;SDS011;4979;51.014;6.678;2022-09-03T07:18:34;2.83;;;1.40;;
9880;SDS011;4979;51.014;6.678;2022-09-03T07:21:00;3.17;;;1.52;;
9880;SDS011;4979;51.014;6.678;2022-09-03T07:23:29;2.90;;;1.58;;
9880;SDS011;4979;51.014;6.678;2022-09-03T07:25:55;2.53;;;1.48;;
9880;SDS011;4979;51.014;6.678;2022-09-03T07:28:22;2.80;;;1.30;;
9880;SDS011;4979;51.014;6.678;2022-09-03T07:30:51;2.05;;;1.30;;
9880;SDS011;4979;51.014;6.678;2022-09-03T07:33:18;2.90;;;1.00;;
9880;SDS011;4979;51.014;6.678;2022-09-03T07:35:44;1.30;;;1.20;;
9880;SDS011;4979;51.014;6.678;2022-09-03T07:38:11;2.33;;;1.33;;
9880;SDS011;4979;51.014;6.678;2022-09-03T07:40:41;16.13;;;1.55;;
9880;SDS011;4979;51.014;6.678;2022-09-03T07:43:07;1.25;;;1.15;;
9880;SDS011;4979;51.014;6.678;2022-09-03T07:45:33;1.42;;;1.10;;
9880;SDS011;4979;51.014;6.678;2022-09-03T07:47:59;2.67;;;1.30;;
9880;SDS011;4979;51.014;6.678;2022-09-03T07:50:24;1.67;;;1.10;;
9880;SDS011;4979;51.014;6.678;2022-09-03T07:52:56;1.73;;;1.25;;
9880;SDS011;4979;51.014;6.678;2022-09-03T07:55:23;1.33;;;1.23;;
9880;SDS011;4979;51.014;6.678;2022-09-03T07:57:49;1.55;;;1.20;;
9880;SDS011;4979;51.014;6.678;2022-09-03T08:00:20;1.65;;;1.30;;
9880;SDS011;4979;51.014;6.678;2022-09-03T08:02:45;3.00;;;1.40;;
9880;SDS011;4979;51.014;6.678;2022-09-03T08:05:11;2.38;;;1.40;;
9880;SDS011;4979;51.014;6.678;2022-09-03T08:07:37;3.83;;;1.10;;
9880;SDS011;4979;51.014;6.678;2022-09-03T08:10:02;4.40;;;1.35;;
9880;SDS011;4979;51.014;6.678;2022-09-03T08:12:29;2.85;;;1.30;;
9880;SDS011;4979;51.014;6.678;2022-09-03T08:14:56;1.98;;;1.40;;
9880;SDS011;4979;51.014;6.678;2022-09-03T08:17:22;1.48;;;1.27;;
9880;SDS011;4979;51.014;6.678;2022-09-03T08:19:48;2.90;;;1.40;;
9880;SDS011;4979;51.014;6.678;2022-09-03T08:22:13;3.67;;;1.48;;
9880;SDS011;4979;51.014;6.678;2022-09-03T08:24:39;3.88;;;1.40;;
9880;SDS011;4979;51.014;6.678;2022-09-03T08:27:06;3.67;;;1.60;;
9880;SDS011;4979;51.014;6.678;2022-09-03T08:29:31;6.97;;;1.70;;
9880;SDS011;4979;51.014;6.678;2022-09-03T08:31:57;2.80;;;1.65;;
9880;SDS011;4979;51.014;6.678;2022-09-03T08:34:22;4.85;;;2.15;;
9880;SDS011;4979;51.014;6.678;2022-09-03T08:36:48;1.90;;;1.70;;
9880;SDS011;4979;51.014;6.678;2022-09-03T08:39:16;3.45;;;2.08;;
9880;SDS011;4979;51.014;6.678;2022-09-03T08:44:30;4.32;;;2.03;;
9880;SDS011;4979;51.014;6.678;2022-09-03T08:49:45;3.15;;;2.15;;
9880;SDS011;4979;51.014;6.678;2022-09-03T08:57:52;4.47;;;2.33;;
9880;SDS011;4979;51.014;6.678;2022-09-03T09:08:46;3.90;;;1.85;;
9880;SDS011;4979;51.014;6.678;2022-09-03T09:11:19;1.88;;;1.52;;
9880;SDS011;4979;51.014;6.678;2022-09-03T09:13:52;3.53;;;2.78;;
9880;SDS011;4979;51.014;6.678;2022-09-03T09:16:30;1.60;;;1.42;;
9880;SDS011;4979;51.014;6.678;2022-09-03T09:21:41;2.75;;;1.40;;
9880;SDS011;4979;51.014;6.678;2022-09-03T09:24:23;6.35;;;1.83;;
9880;SDS011;4979;51.014;6.678;2022-09-03T09:26:52;4.30;;;1.70;;
9880;SDS011;4979;51.014;6.678;2022-09-03T09:29:20;4.60;;;1.90;;
9880;SDS011;4979;51.014;6.678;2022-09-03T09:31:45;4.50;;;2.25;;
9880;SDS011;4979;51.014;6.678;2022-09-03T09:34:11;1.90;;;1.70;;
9880;SDS011;4979;51.014;6.678;2022-09-03T09:36:47;5.60;;;1.98;;
9880;SDS011;4979;51.014;6.678;2022-09-03T09:39:16;2.42;;;2.00;;
9880;SDS011;4979;51.014;6.678;2022-09-03T09:41:43;5.90;;;1.77;;
9880;SDS011;4979;51.014;6.678;2022-09-03T09:44:32;2.42;;;1.70;;
9880;SDS011;4979;51.014;6.678;2022-09-03T09:47:03;3.15;;;1.80;;
9880;SDS011;4979;51.014;6.678;2022-09-03T09:49:34;4.18;;;2.25;;
9880;SDS011;4979;51.014;6.678;2022-09-03T09:52:10;4.85;;;2.78;;
9880;SDS011;4979;51.014;6.678;2022-09-03T09:54:38;2.53;;;2.08;;
9880;SDS011;4979;51.014;6.678;2022-09-03T09:57:05;2.72;;;1.70;;
9880;SDS011;4979;51.014;6.678;2022-09-03T09:59:33;1.90;;;1.80;;
9880;SDS011;4979;51.014;6.678;2022-09-03T10:02:12;2.10;;;1.70;;
9880;SDS011;4979;51.014;6.678;2022-09-03T10:04:43;2.53;;;1.88;;
9880;SDS011;4979;51.014;6.678;2022-09-03T10:09:59;11.48;;;2.28;;
9880;SDS011;4979;51.014;6.678;2022-09-03T10:12:44;3.72;;;1.60;;
9880;SDS011;4979;51.014;6.678;2022-09-03T10:15:24;4.22;;;2.00;;
9880;SDS011;4979;51.014;6.678;2022-09-03T10:18:13;3.10;;;1.60;;
9880;SDS011;4979;51.014;6.678;2022-09-03T10:20:53;4.35;;;1.58;;
9880;SDS011;4979;51.014;6.678;2022-09-03T10:23:28;2.10;;;1.90;;
9880;SDS011;4979;51.014;6.678;2022-09-03T10:26:18;2.55;;;1.75;;
9880;SDS011;4979;51.014;6.678;2022-09-03T10:28:55;3.83;;;1.75;;
9880;SDS011;4979;51.014;6.678;2022-09-03T10:33:53;3.30;;;2.08;;
9880;SDS011;4979;51.014;6.678;2022-09-03T10:36:38;4.32;;;1.55;;
9880;SDS011;4979;51.014;6.678;2022-09-03T10:42:17;4.63;;;2.20;;
9880;SDS011;4979;51.014;6.678;2022-09-03T10:58:12;2.92;;;1.98;;
9880;SDS011;4979;51.014;6.678;2022-09-03T11:00:57;3.17;;;2.22;;
9880;SDS011;4979;51.014;6.678;2022-09-03T11:03:47;3.83;;;2.05;;
9880;SDS011;4979;51.014;6.678;2022-09-03T11:08:55;3.25;;;2.10;;
9880;SDS011;4979;51.014;6.678;2022-09-03T11:11:56;4.93;;;1.70;;
9880;SDS011;4979;51.014;6.678;2022-09-03T11:14:30;2.90;;;2.10;;
9880;SDS011;4979;51.014;6.678;2022-09-03T11:17:10;3.10;;;2.40;;
9880;SDS011;4979;51.014;6.678;2022-09-03T11:19:46;2.60;;;2.40;;
9880;SDS011;4979;51.014;6.678;2022-09-03T11:22:15;3.00;;;1.77;;
9880;SDS011;4979;51.014;6.678;2022-09-03T11:24:52;2.85;;;2.05;;
9880;SDS011;4979;51.014;6.678;2022-09-03T11:30:23;2.97;;;2.20;;
9880;SDS011;4979;51.014;6.678;2022-09-03T11:32:57;4.38;;;2.55;;
9880;SDS011;4979;51.014;6.678;2022-09-03T11:35:27;4.03;;;2.40;;
9880;SDS011;4979;51.014;6.678;2022-09-03T11:38:07;5.18;;;2.90;;
9880;SDS011;4979;51.014;6.678;2022-09-03T11:40:39;5.18;;;3.25;;
9880;SDS011;4979;51.014;6.678;2022-09-03T11:51:02;7.15;;;2.30;;
9880;SDS011;4979;51.014;6.678;2022-09-03T11:53:39;4.22;;;2.40;;
9880;SDS011;4979;51.014;6.678;2022-09-03T11:58:34;3.05;;;1.83;;
9880;SDS011;4979;51.014;6.678;2022-09-03T12:01:03;4.20;;;2.45;;
9880;SDS011;4979;51.014;6.678;2022-09-03T12:03:37;2.95;;;2.17;;
9880;SDS011;4979;51.014;6.678;2022-09-03T12:11:58;6.70;;;2.40;;
9880;SDS011;4979;51.014;6.678;2022-09-03T12:15:02;2.90;;;2.17;;
9880;SDS011;4979;51.014;6.678;2022-09-03T12:17:49;1.92;;;1.73;;
9880;SDS011;4979;51.014;6.678;2022-09-03T12:20:38;5.00;;;3.38;;
9880;SDS011;4979;51.014;6.678;2022-09-03T12:23:05;4.20;;;2.60;;
9880;SDS011;4979;51.014;6.678;2022-09-03T12:25:32;4.70;;;2.67;;
9880;SDS011;4979;51.014;6.678;2022-09-03T12:27:58;5.32;;;2.35;;
9880;SDS011;4979;51.014;6.678;2022-09-03T12:30:29;2.85;;;2.40;;
9880;SDS011;4979;51.014;6.678;2022-09-03T12:33:02;2.92;;;2.63;;
9880;SDS011;4979;51.014;6.678;2022-09-03T12:35:31;2.25;;;2.05;;
9880;SDS011;4979;51.014;6.678;2022-09-03T12:37:57;5.07;;;2.75;;
9880;SDS011;4979;51.014;6.678;2022-09-03T12:40:23;3.30;;;2.30;;
9880;SDS011;4979;51.014;6.678;2022-09-03T12:42:52;2.85;;;2.40;;
9880;SDS011;4979;51.014;6.678;2022-09-03T12:45:19;3.42;;;2.80;;
9880;SDS011;4979;51.014;6.678;2022-09-03T12:47:48;4.53;;;2.78;;
9880;SDS011;4979;51.014;6.678;2022-09-03T12:50:15;5.40;;;3.35;;
9880;SDS011;4979;51.014;6.678;2022-09-03T12:52:44;4.00;;;2.70;;
9880;SDS011;4979;51.014;6.678;2022-09-03T12:55:17;5.82;;;2.67;;
9880;SDS011;4979;51.014;6.678;2022-09-03T12:57:59;7.00;;;3.00;;
9880;SDS011;4979;51.014;6.678;2022-09-03T13:00:26;2.75;;;2.47;;
9880;SDS011;4979;51.014;6.678;2022-09-03T13:03:07;3.97;;;2.58;;
9880;SDS011;4979;51.014;6.678;2022-09-03T13:05:42;3.30;;;2.28;;
9880;SDS011;4979;51.014;6.678;2022-09-03T13:08:21;3.17;;;2.40;;
9880;SDS011;4979;51.014;6.678;2022-09-03T13:10:50;2.85;;;2.50;;
9880;SDS011;4979;51.014;6.678;2022-09-03T13:13:23;2.72;;;2.50;;
9880;SDS011;4979;51.014;6.678;2022-09-03T13:16:02;2.92;;;2.13;;
9880;SDS011;4979;51.014;6.678;2022-09-03T13:21:28;3.22;;;2.85;;
9880;SDS011;4979;51.014;6.678;2022-09-03T13:24:02;3.28;;;2.38;;
9880;SDS011;4979;51.014;6.678;2022-09-03T13:26:40;2.42;;;2.22;;
9880;SDS011;4979;51.014;6.678;2022-09-03T13:32:10;3.20;;;2.53;;
9880;SDS011;4979;51.014;6.678;2022-09-03T13:35:01;2.40;;;2.10;;
9880;SDS011;4979;51.014;6.678;2022-09-03T13:37:41;4.53;;;2.22;;
9880;SDS011;4979;51.014;6.678;2022-09-03T13:40:15;2.75;;;1.98;;
9880;SDS011;4979;51.014;6.678;2022-09-03T13:43:03;2.10;;;1.90;;
9880;SDS011;4979;51.014;6.678;2022-09-03T13:46:02;3.35;;;2.10;;
9880;SDS011;4979;51.014;6.678;2022-09-03T13:48:38;2.60;;;2.22;;
9880;SDS011;4979;51.014;6.678;2022-09-03T13:51:26;3.00;;;2.67;;
9880;SDS011;4979;51.014;6.678;2022-09-03T13:54:21;3.22;;;2.70;;
9880;SDS011;4979;51.014;6.678;2022-09-03T14:02:27;3.70;;;2.25;;
9880;SDS011;4979;51.014;6.678;2022-09-03T14:05:00;3.92;;;2.35;;
9880;SDS011;4979;51.014;6.678;2022-09-03T14:07:42;3.03;;;2.33;;
9880;SDS011;4979;51.014;6.678;2022-09-03T14:12:50;4.97;;;2.30;;
9880;SDS011;4979;51.014;6.678;2022-09-03T14:15:29;2.50;;;2.30;;
9880;SDS011;4979;51.014;6.678;2022-09-03T14:21:02;4.03;;;2.38;;
9880;SDS011;4979;51.014;6.678;2022-09-03T14:24:00;3.63;;;2.65;;
9880;SDS011;4979;51.014;6.678;2022-09-03T14:26:47;6.18;;;2.90;;
9880;SDS011;4979;51.014;6.678;2022-09-03T14:29:16;5.40;;;3.97;;
9880;SDS011;4979;51.014;6.678;2022-09-03T14:34:40;3.60;;;2.10;;
9880;SDS011;4979;51.014;6.678;2022-09-03T15:01:09;13.13;;;9.55;;
9880;SDS011;4979;51.014;6.678;2022-09-03T15:03:54;12.50;;;8.10;;
9880;SDS011;4979;51.014;6.678;2022-09-03T15:09:19;6.72;;;4.30;;
9880;SDS011;4979;51.014;6.678;2022-09-03T15:11:53;4.05;;;3.08;;
9880;SDS011;4979;51.014;6.678;2022-09-03T15:37:07;12.73;;;9.05;;
9880;SDS011;4979;51.014;6.678;2022-09-03T15:39:41;10.68;;;6.30;;
9880;SDS011;4979;51.014;6.678;2022-09-03T15:42:13;3.92;;;3.20;;
9880;SDS011;4979;51.014;6.678;2022-09-03T15:44:48;6.18;;;4.55;;
9880;SDS011;4979;51.014;6.678;2022-09-03T15:47:29;5.28;;;2.72;;
9880;SDS011;4979;51.014;6.678;2022-09-03T15:55:30;6.32;;;4.45;;
9880;SDS011;4979;51.014;6.678;2022-09-03T15:58:05;6.35;;;4.38;;
9880;SDS011;4979;51.014;6.678;2022-09-03T16:00:58;6.57;;;4.70;;
9880;SDS011;4979;51.014;6.678;2022-09-03T16:03:36;2.53;;;2.30;;
9880;SDS011;4979;51.014;6.678;2022-09-03T16:09:21;9.60;;;5.72;;
9880;SDS011;4979;51.014;6.678;2022-09-03T16:15:14;3.67;;;3.17;;
9880;SDS011;4979;51.014;6.678;2022-09-03T16:17:59;4.00;;;2.35;;
9880;SDS011;4979;51.014;6.678;2022-09-03T16:20:35;3.17;;;2.40;;
9880;SDS011;4979;51.014;6.678;2022-09-03T16:23:09;2.92;;;2.20;;
9880;SDS011;4979;51.014;6.678;2022-09-03T16:25:47;3.35;;;2.15;;
9880;SDS011;4979;51.014;6.678;2022-09-03T16:28:18;3.28;;;2.30;;
9880;SDS011;4979;51.014;6.678;2022-09-03T16:30:56;2.40;;;2.15;;
9880;SDS011;4979;51.014;6.678;2022-09-03T16:36:23;4.20;;;3.15;;
9880;SDS011;4979;51.014;6.678;2022-09-03T16:55:52;2.00;;;1.80;;
9880;SDS011;4979;51.014;6.678;2022-09-03T17:11:36;1.95;;;1.75;;
9880;SDS011;4979;51.014;6.678;2022-09-03T17:17:14;2.65;;;2.00;;
9880;SDS011;4979;51.014;6.678;2022-09-03T17:19:59;1.75;;;1.65;;
9880;SDS011;4979;51.014;6.678;2022-09-03T17:25:37;2.00;;;1.90;;
9880;SDS011;4979;51.014;6.678;2022-09-03T17:33:37;3.38;;;2.28;;
9880;SDS011;4979;51.014;6.678;2022-09-03T17:36:15;4.05;;;2.25;;
9880;SDS011;4979;51.014;6.678;2022-09-03T17:38:53;2.10;;;1.90;;
9880;SDS011;4979;51.014;6.678;2022-09-03T17:41:45;2.33;;;1.70;;
9880;SDS011;4979;51.014;6.678;2022-09-03T17:44:22;3.22;;;2.70;;
9880;SDS011;4979;51.014;6.678;2022-09-03T17:49:51;2.20;;;1.70;;
9880;SDS011;4979;51.014;6.678;2022-09-03T17:52:24;5.03;;;1.58;;
9880;SDS011;4979;51.014;6.678;2022-09-03T18:05:57;6.70;;;2.53;;
9880;SDS011;4979;51.014;6.678;2022-09-03T18:11:34;2.78;;;2.33;;
9880;SDS011;4979;51.014;6.678;2022-09-03T18:16:55;2.58;;;2.25;;
9880;SDS011;4979;51.014;6.678;2022-09-03T18:19:43;6.57;;;2.30;;
9880;SDS011;4979;51.014;6.678;2022-09-03T18:25:46;5.82;;;2.30;;
9880;SDS011;4979;51.014;6.678;2022-09-03T18:28:58;8.85;;;2.33;;
9880;SDS011;4979;51.014;6.678;2022-09-03T18:31:43;3.35;;;1.98;;
9880;SDS011;4979;51.014;6.678;2022-09-03T18:34:31;5.70;;;2.58;;
9880;SDS011;4979;51.014;6.678;2022-09-03T18:37:18;2.45;;;2.03;;
9880;SDS011;4979;51.014;6.678;2022-09-03T18:40:05;5.05;;;2.67;;
9880;SDS011;4979;51.014;6.678;2022-09-03T18:45:43;4.88;;;2.78;;
9880;SDS011;4979;51.014;6.678;2022-09-03T18:51:51;2.95;;;2.72;;
9880;SDS011;4979;51.014;6.678;2022-09-03T18:54:51;5.00;;;3.00;;
9880;SDS011;4979;51.014;6.678;2022-09-03T18:58:26;4.30;;;3.08;;
9880;SDS011;4979;51.014;6.678;2022-09-03T19:01:02;5.03;;;3.30;;
9880;SDS011;4979;51.014;6.678;2022-09-03T19:04:01;4.68;;;3.15;;
9880;SDS011;4979;51.014;6.678;2022-09-03T19:10:13;3.70;;;3.15;;
9880;SDS011;4979;51.014;6.678;2022-09-03T19:13:21;3.55;;;2.88;;
9880;SDS011;4979;51.014;6.678;2022-09-03T19:16:25;4.53;;;2.85;;
9880;SDS011;4979;51.014;6.678;2022-09-03T19:22:09;4.50;;;3.30;;
9880;SDS011;4979;51.014;6.678;2022-09-03T19:25:05;4.07;;;3.20;;
9880;SDS011;4979;51.014;6.678;2022-09-03T19:27:59;3.08;;;2.60;;
9880;SDS011;4979;51.014;6.678;2022-09-03T19:31:01;2.95;;;2.55;;
9880;SDS011;4979;51.014;6.678;2022-09-03T19:37:51;3.67;;;2.60;;
9880;SDS011;4979;51.014;6.678;2022-09-03T19:40:33;5.43;;;3.05;;
9880;SDS011;4979;51.014;6.678;2022-09-03T19:49:42;3.53;;;2.80;;
9880;SDS011;4979;51.014;6.678;2022-09-03T19:53:05;8.00;;;3.00;;
9880;SDS011;4979;51.014;6.678;2022-09-03T19:55:56;3.15;;;2.60;;
9880;SDS011;4979;51.014;6.678;2022-09-03T19:58:53;3.92;;;2.92;;
9880;SDS011;4979;51.014;6.678;2022-09-03T20:01:42;5.78;;;3.28;;
9880;SDS011;4979;51.014;6.678;2022-09-03T20:04:37;3.92;;;2.97;;
9880;SDS011;4979;51.014;6.678;2022-09-03T20:07:43;4.32;;;3.13;;
9880;SDS011;4979;51.014;6.678;2022-09-03T20:10:32;4.22;;;3.40;;
9880;SDS011;4979;51.014;6.678;2022-09-03T20:13:10;4.18;;;3.15;;
9880;SDS011;4979;51.014;6.678;2022-09-03T20:21:15;4.88;;;3.10;;
9880;SDS011;4979;51.014;6.678;2022-09-03T20:23:59;3.42;;;3.13;;
9880;SDS011;4979;51.014;6.678;2022-09-03T20:26:39;4.28;;;3.50;;
9880;SDS011;4979;51.014;6.678;2022-09-03T20:32:21;5.05;;;3.17;;
9880;SDS011;4979;51.014;6.678;2022-09-03T20:35:17;3.95;;;3.55;;
9880;SDS011;4979;51.014;6.678;2022-09-03T20:41:12;5.95;;;3.08;;
9880;SDS011;4979;51.014;6.678;2022-09-03T20:49:55;3.83;;;3.25;;
9880;SDS011;4979;51.014;6.678;2022-09-03T20:55:42;4.40;;;3.25;;
9880;SDS011;4979;51.014;6.678;2022-09-03T21:01:03;4.13;;;3.60;;
9880;SDS011;4979;51.014;6.678;2022-09-03T21:03:36;5.45;;;3.90;;
9880;SDS011;4979;51.014;6.678;2022-09-03T21:06:37;4.07;;;3.67;;
9880;SDS011;4979;51.014;6.678;2022-09-03T21:09:45;6.00;;;3.65;;
9880;SDS011;4979;51.014;6.678;2022-09-03T21:15:48;7.10;;;4.40;;
9880;SDS011;4979;51.014;6.678;2022-09-03T21:18:27;5.50;;;4.32;;